sensor_id;sensor_type;location;lat;lon;timestamp;temperature;humidity
25346;DHT22;13300;51.032;3.710;2023-11-18T00:02:11;7.70;99.90
25346;DHT22;13300;51.032;3.710;2023-11-18T00:04:36;7.80;99.90
25346;DHT22;13300;51.032;3.710;2023-11-18T00:07:02;7.80;99.90
25346;DHT22;13300;51.032;3.710;2023-11-18T00:09:29;7.80;99.90
25346;DHT22;13300;51.032;3.710;2023-11-18T00:11:55;7.60;99.90
25346;DHT22;13300;51.032;3.710;2023-11-18T00:14:20;7.60;99.90
25346;DHT22;13300;51.032;3.710;2023-11-18T00:16:47;7.70;99.90
25346;DHT22;13300;51.032;3.710;2023-11-18T00:19:12;7.60;99.90
25346;DHT22;13300;51.032;3.710;2023-11-18T00:21:38;7.60;99.90
25346;DHT22;13300;51.032;3.710;2023-11-18T00:24:04;7.60;99.90
25346;DHT22;13300;51.032;3.710;2023-11-18T00:26:30;7.80;99.90
25346;DHT22;13300;51.032;3.710;2023-11-18T00:28:56;7.90;99.90
25346;DHT22;13300;51.032;3.710;2023-11-18T00:31:22;8.00;99.90
25346;DHT22;13300;51.032;3.710;2023-11-18T00:33:48;8.10;99.90
25346;DHT22;13300;51.032;3.710;2023-11-18T00:36:13;8.10;99.90
25346;DHT22;13300;51.032;3.710;2023-11-18T00:38:39;8.10;99.90
25346;DHT22;13300;51.032;3.710;2023-11-18T00:41:06;8.10;99.90
25346;DHT22;13300;51.032;3.710;2023-11-18T00:43:32;8.10;99.90
25346;DHT22;13300;51.032;3.710;2023-11-18T00:45:57;8.00;99.90
25346;DHT22;13300;51.032;3.710;2023-11-18T00:48:25;7.90;99.90
25346;DHT22;13300;51.032;3.710;2023-11-18T00:50:51;7.80;99.90
25346;DHT22;13300;51.032;3.710;2023-11-18T00:53:17;7.70;99.90
25346;DHT22;13300;51.032;3.710;2023-11-18T00:55:45;7.70;99.90
25346;DHT22;13300;51.032;3.710;2023-11-18T00:58:11;7.70;99.90
25346;DHT22;13300;51.032;3.710;2023-11-18T01:00:37;7.70;99.90
25346;DHT22;13300;51.032;3.710;2023-11-18T01:03:02;7.70;99.90
25346;DHT22;13300;51.032;3.710;2023-11-18T01:05:31;7.70;99.90
25346;DHT22;13300;51.032;3.710;2023-11-18T01:08:01;7.60;99.90
25346;DHT22;13300;51.032;3.710;2023-11-18T01:10:26;7.70;99.90
25346;DHT22;13300;51.032;3.710;2023-11-18T01:12:52;7.80;99.90
25346;DHT22;13300;51.032;3.710;2023-11-18T01:15:20;7.90;99.90
25346;DHT22;13300;51.032;3.710;2023-11-18T01:17:46;7.90;99.90
25346;DHT22;13300;51.032;3.710;2023-11-18T01:20:12;8.00;99.90
25346;DHT22;13300;51.032;3.710;2023-11-18T01:22:39;7.90;99.90
25346;DHT22;13300;51.032;3.710;2023-11-18T01:25:06;8.00;99.90
25346;DHT22;13300;51.032;3.710;2023-11-18T01:27:32;8.00;99.90
25346;DHT22;13300;51.032;3.710;2023-11-18T01:29:59;7.90;99.90
25346;DHT22;13300;51.032;3.710;2023-11-18T01:32:25;7.90;99.90
25346;DHT22;13300;51.032;3.710;2023-11-18T01:34:53;7.90;99.90
25346;DHT22;13300;51.032;3.710;2023-11-18T01:37:22;8.00;99.90
25346;DHT22;13300;51.032;3.710;2023-11-18T01:39:49;7.90;99.90
25346;DHT22;13300;51.032;3.710;2023-11-18T01:42:15;8.00;99.90
25346;DHT22;13300;51.032;3.710;2023-11-18T01:44:41;7.90;99.90
25346;DHT22;13300;51.032;3.710;2023-11-18T01:47:08;7.80;99.90
25346;DHT22;13300;51.032;3.710;2023-11-18T01:49:41;7.80;99.90
25346;DHT22;13300;51.032;3.710;2023-11-18T01:52:07;8.00;99.90
25346;DHT22;13300;51.032;3.710;2023-11-18T01:54:37;8.00;99.90
25346;DHT22;13300;51.032;3.710;2023-11-18T01:57:05;8.10;99.90
25346;DHT22;13300;51.032;3.710;2023-11-18T01:59:35;8.00;99.90
25346;DHT22;13300;51.032;3.710;2023-11-18T02:02:03;8.10;99.90
25346;DHT22;13300;51.032;3.710;2023-11-18T02:04:29;8.10;99.90
25346;DHT22;13300;51.032;3.710;2023-11-18T02:06:56;8.10;99.90
25346;DHT22;13300;51.032;3.710;2023-11-18T02:09:23;8.10;99.90
25346;DHT22;13300;51.032;3.710;2023-11-18T02:12:15;8.10;99.90
25346;DHT22;13300;51.032;3.710;2023-11-18T02:14:45;8.10;99.90
25346;DHT22;13300;51.032;3.710;2023-11-18T02:17:14;8.10;99.90
25346;DHT22;13300;51.032;3.710;2023-11-18T02:19:41;8.10;99.90
25346;DHT22;13300;51.032;3.710;2023-11-18T02:22:08;8.10;99.90
25346;DHT22;13300;51.032;3.710;2023-11-18T02:24:36;8.20;99.90
25346;DHT22;13300;51.032;3.710;2023-11-18T02:27:06;8.20;99.90
25346;DHT22;13300;51.032;3.710;2023-11-18T02:29:38;8.20;99.90
25346;DHT22;13300;51.032;3.710;2023-11-18T02:32:11;8.20;99.90
25346;DHT22;13300;51.032;3.710;2023-11-18T02:34:44;8.20;99.90
25346;DHT22;13300;51.032;3.710;2023-11-18T02:37:13;8.20;99.90
25346;DHT22;13300;51.032;3.710;2023-11-18T02:39:42;8.30;99.90
25346;DHT22;13300;51.032;3.710;2023-11-18T02:42:10;8.20;99.90
25346;DHT22;13300;51.032;3.710;2023-11-18T02:44:38;8.20;99.90
25346;DHT22;13300;51.032;3.710;2023-11-18T02:47:04;8.20;99.90
25346;DHT22;13300;51.032;3.710;2023-11-18T02:49:35;8.20;99.90
25346;DHT22;13300;51.032;3.710;2023-11-18T02:52:01;8.20;99.90
25346;DHT22;13300;51.032;3.710;2023-11-18T02:54:27;8.20;99.90
25346;DHT22;13300;51.032;3.710;2023-11-18T02:56:53;8.10;99.90
25346;DHT22;13300;51.032;3.710;2023-11-18T02:59:20;8.00;99.90
25346;DHT22;13300;51.032;3.710;2023-11-18T03:01:46;8.00;99.90
25346;DHT22;13300;51.032;3.710;2023-11-18T03:04:14;8.30;99.90
25346;DHT22;13300;51.032;3.710;2023-11-18T03:06:40;8.20;99.90
25346;DHT22;13300;51.032;3.710;2023-11-18T03:09:07;8.20;99.90
25346;DHT22;13300;51.032;3.710;2023-11-18T03:11:36;8.10;99.90
25346;DHT22;13300;51.032;3.710;2023-11-18T03:14:02;8.10;99.90
25346;DHT22;13300;51.032;3.710;2023-11-18T03:16:30;8.10;99.90
25346;DHT22;13300;51.032;3.710;2023-11-18T03:18:57;8.10;99.90
25346;DHT22;13300;51.032;3.710;2023-11-18T03:21:24;8.10;99.90
25346;DHT22;13300;51.032;3.710;2023-11-18T03:23:51;7.90;99.90
25346;DHT22;13300;51.032;3.710;2023-11-18T03:26:19;7.90;99.90
25346;DHT22;13300;51.032;3.710;2023-11-18T03:28:45;8.00;99.90
25346;DHT22;13300;51.032;3.710;2023-11-18T03:31:11;8.00;99.90
25346;DHT22;13300;51.032;3.710;2023-11-18T03:33:39;8.00;99.90
25346;DHT22;13300;51.032;3.710;2023-11-18T03:36:07;8.00;99.90
25346;DHT22;13300;51.032;3.710;2023-11-18T03:38:34;8.10;99.90
25346;DHT22;13300;51.032;3.710;2023-11-18T03:41:00;8.10;99.90
25346;DHT22;13300;51.032;3.710;2023-11-18T03:43:26;8.00;99.90
25346;DHT22;13300;51.032;3.710;2023-11-18T03:45:52;8.00;99.90
25346;DHT22;13300;51.032;3.710;2023-11-18T03:48:23;8.00;99.90
25346;DHT22;13300;51.032;3.710;2023-11-18T03:50:51;8.00;99.90
25346;DHT22;13300;51.032;3.710;2023-11-18T03:53:16;8.00;99.90
25346;DHT22;13300;51.032;3.710;2023-11-18T03:55:42;8.00;99.90
25346;DHT22;13300;51.032;3.710;2023-11-18T03:58:08;8.10;99.90
25346;DHT22;13300;51.032;3.710;2023-11-18T04:00:34;8.10;99.90
25346;DHT22;13300;51.032;3.710;2023-11-18T04:03:02;8.10;99.90
25346;DHT22;13300;51.032;3.710;2023-11-18T04:05:28;8.10;99.90
25346;DHT22;13300;51.032;3.710;2023-11-18T04:07:54;8.10;99.90
25346;DHT22;13300;51.032;3.710;2023-11-18T04:10:23;8.20;99.90
25346;DHT22;13300;51.032;3.710;2023-11-18T04:12:48;8.10;99.90
25346;DHT22;13300;51.032;3.710;2023-11-18T04:15:17;8.20;99.90
25346;DHT22;13300;51.032;3.710;2023-11-18T04:17:43;8.20;99.90
25346;DHT22;13300;51.032;3.710;2023-11-18T04:20:10;8.20;99.90
25346;DHT22;13300;51.032;3.710;2023-11-18T04:22:43;8.20;99.90
25346;DHT22;13300;51.032;3.710;2023-11-18T04:25:10;8.20;99.90
25346;DHT22;13300;51.032;3.710;2023-11-18T04:27:39;8.20;99.90
25346;DHT22;13300;51.032;3.710;2023-11-18T04:30:06;8.20;99.90
25346;DHT22;13300;51.032;3.710;2023-11-18T04:32:31;8.10;99.90
25346;DHT22;13300;51.032;3.710;2023-11-18T04:35:00;8.10;99.90
25346;DHT22;13300;51.032;3.710;2023-11-18T04:37:34;8.00;99.90
25346;DHT22;13300;51.032;3.710;2023-11-18T04:40:00;8.10;99.90
25346;DHT22;13300;51.032;3.710;2023-11-18T04:42:26;8.20;99.90
25346;DHT22;13300;51.032;3.710;2023-11-18T04:44:58;8.20;99.90
25346;DHT22;13300;51.032;3.710;2023-11-18T04:47:23;8.10;99.90
25346;DHT22;13300;51.032;3.710;2023-11-18T04:49:51;8.10;99.90
25346;DHT22;13300;51.032;3.710;2023-11-18T04:52:18;8.20;99.90
25346;DHT22;13300;51.032;3.710;2023-11-18T04:54:44;8.20;99.90
25346;DHT22;13300;51.032;3.710;2023-11-18T04:57:16;8.20;99.90
25346;DHT22;13300;51.032;3.710;2023-11-18T04:59:42;8.20;99.90
25346;DHT22;13300;51.032;3.710;2023-11-18T05:02:08;8.20;99.90
25346;DHT22;13300;51.032;3.710;2023-11-18T05:04:34;8.30;99.90
25346;DHT22;13300;51.032;3.710;2023-11-18T05:07:01;8.40;99.90
25346;DHT22;13300;51.032;3.710;2023-11-18T05:09:30;8.30;99.90
25346;DHT22;13300;51.032;3.710;2023-11-18T05:11:58;8.30;99.90
25346;DHT22;13300;51.032;3.710;2023-11-18T05:14:24;8.30;99.90
25346;DHT22;13300;51.032;3.710;2023-11-18T05:16:50;8.40;99.90
25346;DHT22;13300;51.032;3.710;2023-11-18T05:19:15;8.30;99.90
25346;DHT22;13300;51.032;3.710;2023-11-18T05:21:42;8.30;99.90
25346;DHT22;13300;51.032;3.710;2023-11-18T05:24:08;8.20;99.90
25346;DHT22;13300;51.032;3.710;2023-11-18T05:26:34;8.10;99.90
25346;DHT22;13300;51.032;3.710;2023-11-18T05:29:00;8.20;99.90
25346;DHT22;13300;51.032;3.710;2023-11-18T05:31:27;8.20;99.90
25346;DHT22;13300;51.032;3.710;2023-11-18T05:33:53;8.20;99.90
25346;DHT22;13300;51.032;3.710;2023-11-18T05:36:21;8.20;99.90
25346;DHT22;13300;51.032;3.710;2023-11-18T05:38:53;8.20;99.90
25346;DHT22;13300;51.032;3.710;2023-11-18T05:41:20;8.20;99.90
25346;DHT22;13300;51.032;3.710;2023-11-18T05:43:53;8.20;99.90
25346;DHT22;13300;51.032;3.710;2023-11-18T05:46:25;8.30;99.90
25346;DHT22;13300;51.032;3.710;2023-11-18T05:48:52;8.30;99.90
25346;DHT22;13300;51.032;3.710;2023-11-18T05:51:26;8.30;99.90
25346;DHT22;13300;51.032;3.710;2023-11-18T05:53:56;8.30;99.90
25346;DHT22;13300;51.032;3.710;2023-11-18T05:56:25;8.30;99.90
25346;DHT22;13300;51.032;3.710;2023-11-18T05:58:52;8.30;99.90
25346;DHT22;13300;51.032;3.710;2023-11-18T06:01:24;8.40;99.90
25346;DHT22;13300;51.032;3.710;2023-11-18T06:03:52;8.40;99.90
25346;DHT22;13300;51.032;3.710;2023-11-18T06:06:21;8.50;99.90
25346;DHT22;13300;51.032;3.710;2023-11-18T06:08:47;8.50;99.90
25346;DHT22;13300;51.032;3.710;2023-11-18T06:11:14;8.60;99.90
25346;DHT22;13300;51.032;3.710;2023-11-18T06:13:48;8.50;99.90
25346;DHT22;13300;51.032;3.710;2023-11-18T06:16:14;8.50;99.90
25346;DHT22;13300;51.032;3.710;2023-11-18T06:18:42;8.50;99.90
25346;DHT22;13300;51.032;3.710;2023-11-18T06:21:23;8.50;99.90
25346;DHT22;13300;51.032;3.710;2023-11-18T06:23:55;8.50;99.90
25346;DHT22;13300;51.032;3.710;2023-11-18T06:26:21;8.50;99.90
25346;DHT22;13300;51.032;3.710;2023-11-18T06:28:48;8.60;99.90
25346;DHT22;13300;51.032;3.710;2023-11-18T06:31:17;8.50;99.90
25346;DHT22;13300;51.032;3.710;2023-11-18T06:33:45;8.60;99.90
25346;DHT22;13300;51.032;3.710;2023-11-18T06:38:40;8.60;99.90
25346;DHT22;13300;51.032;3.710;2023-11-18T06:41:06;8.40;99.90
25346;DHT22;13300;51.032;3.710;2023-11-18T06:43:36;8.50;99.90
25346;DHT22;13300;51.032;3.710;2023-11-18T06:46:23;8.60;99.90
25346;DHT22;13300;51.032;3.710;2023-11-18T06:48:53;8.50;99.90
25346;DHT22;13300;51.032;3.710;2023-11-18T06:51:30;8.40;99.90
25346;DHT22;13300;51.032;3.710;2023-11-18T06:53:57;8.50;99.90
25346;DHT22;13300;51.032;3.710;2023-11-18T06:56:26;8.40;99.90
25346;DHT22;13300;51.032;3.710;2023-11-18T06:58:53;8.40;99.90
25346;DHT22;13300;51.032;3.710;2023-11-18T07:01:20;8.50;99.90
25346;DHT22;13300;51.032;3.710;2023-11-18T07:03:48;8.50;99.90
25346;DHT22;13300;51.032;3.710;2023-11-18T07:06:19;8.40;99.90
25346;DHT22;13300;51.032;3.710;2023-11-18T07:08:51;8.30;99.90
25346;DHT22;13300;51.032;3.710;2023-11-18T07:11:17;8.30;99.90
25346;DHT22;13300;51.032;3.710;2023-11-18T07:13:44;8.20;99.90
25346;DHT22;13300;51.032;3.710;2023-11-18T07:16:10;8.20;99.90
25346;DHT22;13300;51.032;3.710;2023-11-18T07:18:36;8.30;99.90
25346;DHT22;13300;51.032;3.710;2023-11-18T07:21:05;8.30;99.90
25346;DHT22;13300;51.032;3.710;2023-11-18T07:23:31;8.30;99.90
25346;DHT22;13300;51.032;3.710;2023-11-18T07:25:57;8.30;99.90
25346;DHT22;13300;51.032;3.710;2023-11-18T07:28:23;8.30;99.90
25346;DHT22;13300;51.032;3.710;2023-11-18T07:30:49;8.30;99.90
25346;DHT22;13300;51.032;3.710;2023-11-18T07:33:16;8.30;99.90
25346;DHT22;13300;51.032;3.710;2023-11-18T07:35:48;8.30;99.90
25346;DHT22;13300;51.032;3.710;2023-11-18T07:38:15;8.20;99.90
25346;DHT22;13300;51.032;3.710;2023-11-18T07:40:41;8.20;99.90
25346;DHT22;13300;51.032;3.710;2023-11-18T07:43:14;8.20;99.90
25346;DHT22;13300;51.032;3.710;2023-11-18T07:45:40;8.20;99.90
25346;DHT22;13300;51.032;3.710;2023-11-18T07:48:08;8.20;99.90
25346;DHT22;13300;51.032;3.710;2023-11-18T07:50:39;8.20;99.90
25346;DHT22;13300;51.032;3.710;2023-11-18T07:53:09;8.20;99.90
25346;DHT22;13300;51.032;3.710;2023-11-18T07:55:35;8.10;99.90
25346;DHT22;13300;51.032;3.710;2023-11-18T07:58:07;8.10;99.90
25346;DHT22;13300;51.032;3.710;2023-11-18T08:00:43;8.10;99.90
25346;DHT22;13300;51.032;3.710;2023-11-18T08:03:10;8.20;99.90
25346;DHT22;13300;51.032;3.710;2023-11-18T08:05:43;8.20;99.90
25346;DHT22;13300;51.032;3.710;2023-11-18T08:08:12;8.20;99.90
25346;DHT22;13300;51.032;3.710;2023-11-18T08:10:40;8.30;99.90
25346;DHT22;13300;51.032;3.710;2023-11-18T08:13:10;8.30;99.90
25346;DHT22;13300;51.032;3.710;2023-11-18T08:15:41;8.20;99.90
25346;DHT22;13300;51.032;3.710;2023-11-18T08:18:07;8.30;99.90
25346;DHT22;13300;51.032;3.710;2023-11-18T08:20:36;8.30;99.90
25346;DHT22;13300;51.032;3.710;2023-11-18T08:23:01;8.30;99.90
25346;DHT22;13300;51.032;3.710;2023-11-18T08:25:27;8.40;99.90
25346;DHT22;13300;51.032;3.710;2023-11-18T08:27:53;8.30;99.90
25346;DHT22;13300;51.032;3.710;2023-11-18T08:30:20;8.40;99.90
25346;DHT22;13300;51.032;3.710;2023-11-18T08:32:47;8.30;99.90
25346;DHT22;13300;51.032;3.710;2023-11-18T08:35:14;8.30;99.90
25346;DHT22;13300;51.032;3.710;2023-11-18T08:37:40;8.30;99.90
25346;DHT22;13300;51.032;3.710;2023-11-18T08:40:10;8.40;99.90
25346;DHT22;13300;51.032;3.710;2023-11-18T08:42:45;8.40;99.90
25346;DHT22;13300;51.032;3.710;2023-11-18T08:45:22;8.50;99.90
25346;DHT22;13300;51.032;3.710;2023-11-18T08:47:58;8.40;99.90
25346;DHT22;13300;51.032;3.710;2023-11-18T08:50:26;8.40;99.90
25346;DHT22;13300;51.032;3.710;2023-11-18T08:52:53;8.50;99.90
25346;DHT22;13300;51.032;3.710;2023-11-18T08:55:26;8.50;99.90
25346;DHT22;13300;51.032;3.710;2023-11-18T08:58:09;8.50;99.90
25346;DHT22;13300;51.032;3.710;2023-11-18T09:00:57;8.50;99.90
25346;DHT22;13300;51.032;3.710;2023-11-18T09:03:39;8.50;99.90
25346;DHT22;13300;51.032;3.710;2023-11-18T09:06:17;8.50;99.90
25346;DHT22;13300;51.032;3.710;2023-11-18T09:08:47;8.50;99.90
25346;DHT22;13300;51.032;3.710;2023-11-18T09:11:18;8.50;99.90
25346;DHT22;13300;51.032;3.710;2023-11-18T09:13:45;8.50;99.90
25346;DHT22;13300;51.032;3.710;2023-11-18T09:16:13;8.60;99.90
25346;DHT22;13300;51.032;3.710;2023-11-18T09:18:40;8.60;99.90
25346;DHT22;13300;51.032;3.710;2023-11-18T09:21:07;8.50;99.90
25346;DHT22;13300;51.032;3.710;2023-11-18T09:23:36;8.50;99.90
25346;DHT22;13300;51.032;3.710;2023-11-18T09:26:03;8.50;99.90
25346;DHT22;13300;51.032;3.710;2023-11-18T09:28:33;8.50;99.90
25346;DHT22;13300;51.032;3.710;2023-11-18T09:31:00;8.50;99.90
25346;DHT22;13300;51.032;3.710;2023-11-18T09:33:30;8.60;99.90
25346;DHT22;13300;51.032;3.710;2023-11-18T09:36:03;8.60;99.90
25346;DHT22;13300;51.032;3.710;2023-11-18T09:38:34;8.60;99.90
25346;DHT22;13300;51.032;3.710;2023-11-18T09:41:12;8.60;99.90
25346;DHT22;13300;51.032;3.710;2023-11-18T09:43:42;8.40;99.90
25346;DHT22;13300;51.032;3.710;2023-11-18T09:46:32;8.60;99.90
25346;DHT22;13300;51.032;3.710;2023-11-18T09:51:57;8.70;99.90
25346;DHT22;13300;51.032;3.710;2023-11-18T09:57:04;8.60;99.90
25346;DHT22;13300;51.032;3.710;2023-11-18T10:02:09;8.70;99.90
25346;DHT22;13300;51.032;3.710;2023-11-18T10:04:39;8.70;99.90
25346;DHT22;13300;51.032;3.710;2023-11-18T10:07:09;8.70;99.90
25346;DHT22;13300;51.032;3.710;2023-11-18T10:09:37;8.70;99.90
25346;DHT22;13300;51.032;3.710;2023-11-18T10:12:04;8.70;99.90
25346;DHT22;13300;51.032;3.710;2023-11-18T10:14:51;8.60;99.90
25346;DHT22;13300;51.032;3.710;2023-11-18T10:17:18;8.70;99.90
25346;DHT22;13300;51.032;3.710;2023-11-18T10:19:57;8.60;99.90
25346;DHT22;13300;51.032;3.710;2023-11-18T10:22:27;8.70;99.90
25346;DHT22;13300;51.032;3.710;2023-11-18T10:24:55;8.70;99.90
25346;DHT22;13300;51.032;3.710;2023-11-18T10:27:25;8.70;99.90
25346;DHT22;13300;51.032;3.710;2023-11-18T10:29:56;8.80;99.90
25346;DHT22;13300;51.032;3.710;2023-11-18T10:32:21;8.70;99.90
25346;DHT22;13300;51.032;3.710;2023-11-18T10:34:50;8.80;99.90
25346;DHT22;13300;51.032;3.710;2023-11-18T10:37:16;8.80;99.90
25346;DHT22;13300;51.032;3.710;2023-11-18T10:39:46;8.80;99.90
25346;DHT22;13300;51.032;3.710;2023-11-18T10:42:13;8.80;99.90
25346;DHT22;13300;51.032;3.710;2023-11-18T10:45:03;8.80;99.90
25346;DHT22;13300;51.032;3.710;2023-11-18T10:47:33;8.90;99.90
25346;DHT22;13300;51.032;3.710;2023-11-18T10:50:01;8.90;99.90
25346;DHT22;13300;51.032;3.710;2023-11-18T10:52:27;8.90;99.90
25346;DHT22;13300;51.032;3.710;2023-11-18T10:55:00;8.90;99.90
25346;DHT22;13300;51.032;3.710;2023-11-18T10:57:33;8.90;99.90
25346;DHT22;13300;51.032;3.710;2023-11-18T11:00:04;9.00;99.90
25346;DHT22;13300;51.032;3.710;2023-11-18T11:02:39;9.00;99.90
25346;DHT22;13300;51.032;3.710;2023-11-18T11:05:07;9.00;99.90
25346;DHT22;13300;51.032;3.710;2023-11-18T11:07:33;9.00;99.90
25346;DHT22;13300;51.032;3.710;2023-11-18T11:10:01;9.00;99.90
25346;DHT22;13300;51.032;3.710;2023-11-18T11:12:33;9.00;99.90
25346;DHT22;13300;51.032;3.710;2023-11-18T11:15:18;9.00;99.90
25346;DHT22;13300;51.032;3.710;2023-11-18T11:17:51;9.00;99.90
25346;DHT22;13300;51.032;3.710;2023-11-18T11:20:22;9.00;99.90
25346;DHT22;13300;51.032;3.710;2023-11-18T11:23:21;9.10;99.90
25346;DHT22;13300;51.032;3.710;2023-11-18T11:28:22;9.00;99.90
25346;DHT22;13300;51.032;3.710;2023-11-18T11:33:41;9.00;99.90
25346;DHT22;13300;51.032;3.710;2023-11-18T11:36:12;9.10;99.90
25346;DHT22;13300;51.032;3.710;2023-11-18T11:38:41;9.10;99.90
25346;DHT22;13300;51.032;3.710;2023-11-18T11:41:13;9.10;99.90
25346;DHT22;13300;51.032;3.710;2023-11-18T11:43:47;9.10;99.90
25346;DHT22;13300;51.032;3.710;2023-11-18T11:46:14;9.10;99.90
25346;DHT22;13300;51.032;3.710;2023-11-18T11:48:45;9.20;99.90
25346;DHT22;13300;51.032;3.710;2023-11-18T11:51:19;9.10;99.90
25346;DHT22;13300;51.032;3.710;2023-11-18T11:53:58;9.20;99.90
25346;DHT22;13300;51.032;3.710;2023-11-18T11:56:59;9.20;99.90
25346;DHT22;13300;51.032;3.710;2023-11-18T12:02:27;9.30;99.90
25346;DHT22;13300;51.032;3.710;2023-11-18T12:04:58;9.30;99.90
25346;DHT22;13300;51.032;3.710;2023-11-18T12:07:27;9.30;99.90
25346;DHT22;13300;51.032;3.710;2023-11-18T12:10:00;9.40;99.90
25346;DHT22;13300;51.032;3.710;2023-11-18T12:12:27;9.40;99.90
25346;DHT22;13300;51.032;3.710;2023-11-18T12:14:57;9.40;99.90
25346;DHT22;13300;51.032;3.710;2023-11-18T12:20:41;9.40;99.90
25346;DHT22;13300;51.032;3.710;2023-11-18T12:23:16;9.50;99.90
25346;DHT22;13300;51.032;3.710;2023-11-18T12:25:49;9.50;99.90
25346;DHT22;13300;51.032;3.710;2023-11-18T12:28:24;9.50;99.90
25346;DHT22;13300;51.032;3.710;2023-11-18T12:30:53;9.50;99.90
25346;DHT22;13300;51.032;3.710;2023-11-18T12:33:22;9.50;99.90
25346;DHT22;13300;51.032;3.710;2023-11-18T12:38:45;9.50;99.90
25346;DHT22;13300;51.032;3.710;2023-11-18T12:41:37;9.50;99.90
25346;DHT22;13300;51.032;3.710;2023-11-18T12:44:30;9.50;99.90
25346;DHT22;13300;51.032;3.710;2023-11-18T12:47:05;9.50;99.90
25346;DHT22;13300;51.032;3.710;2023-11-18T12:49:41;9.50;99.90
25346;DHT22;13300;51.032;3.710;2023-11-18T12:52:11;9.60;99.90
25346;DHT22;13300;51.032;3.710;2023-11-18T12:54:40;9.60;99.90
25346;DHT22;13300;51.032;3.710;2023-11-18T12:57:09;9.60;99.90
25346;DHT22;13300;51.032;3.710;2023-11-18T12:59:36;9.60;99.90
25346;DHT22;13300;51.032;3.710;2023-11-18T13:02:10;9.70;99.90
25346;DHT22;13300;51.032;3.710;2023-11-18T13:04:43;9.70;99.90
25346;DHT22;13300;51.032;3.710;2023-11-18T13:07:16;9.70;99.90
25346;DHT22;13300;51.032;3.710;2023-11-18T13:09:42;9.70;99.90
25346;DHT22;13300;51.032;3.710;2023-11-18T13:12:11;9.70;99.90
25346;DHT22;13300;51.032;3.710;2023-11-18T13:14:41;9.70;99.90
25346;DHT22;13300;51.032;3.710;2023-11-18T13:17:15;9.80;99.90
25346;DHT22;13300;51.032;3.710;2023-11-18T13:19:42;9.80;99.90
25346;DHT22;13300;51.032;3.710;2023-11-18T13:22:10;9.80;99.90
25346;DHT22;13300;51.032;3.710;2023-11-18T13:24:37;9.80;99.90
25346;DHT22;13300;51.032;3.710;2023-11-18T13:27:09;9.80;99.90
25346;DHT22;13300;51.032;3.710;2023-11-18T13:29:36;9.90;99.90
25346;DHT22;13300;51.032;3.710;2023-11-18T13:32:06;9.90;99.90
25346;DHT22;13300;51.032;3.710;2023-11-18T13:34:33;9.90;99.90
25346;DHT22;13300;51.032;3.710;2023-11-18T13:37:03;10.00;99.90
25346;DHT22;13300;51.032;3.710;2023-11-18T13:39:29;10.00;99.90
25346;DHT22;13300;51.032;3.710;2023-11-18T13:41:57;9.90;99.90
25346;DHT22;13300;51.032;3.710;2023-11-18T13:44:36;9.90;99.90
25346;DHT22;13300;51.032;3.710;2023-11-18T13:47:06;10.00;99.90
25346;DHT22;13300;51.032;3.710;2023-11-18T13:49:34;10.00;99.90
25346;DHT22;13300;51.032;3.710;2023-11-18T13:52:00;10.00;99.90
25346;DHT22;13300;51.032;3.710;2023-11-18T13:54:29;10.00;99.90
25346;DHT22;13300;51.032;3.710;2023-11-18T13:56:58;10.00;99.90
25346;DHT22;13300;51.032;3.710;2023-11-18T13:59:27;10.10;99.90
25346;DHT22;13300;51.032;3.710;2023-11-18T14:01:58;10.20;99.90
25346;DHT22;13300;51.032;3.710;2023-11-18T14:04:24;10.20;99.90
25346;DHT22;13300;51.032;3.710;2023-11-18T14:06:51;10.20;99.90
25346;DHT22;13300;51.032;3.710;2023-11-18T14:09:18;10.20;99.90
25346;DHT22;13300;51.032;3.710;2023-11-18T14:11:47;10.20;99.90
25346;DHT22;13300;51.032;3.710;2023-11-18T14:14:13;10.20;99.90
25346;DHT22;13300;51.032;3.710;2023-11-18T14:16:39;10.30;99.90
25346;DHT22;13300;51.032;3.710;2023-11-18T14:19:05;10.30;99.90
25346;DHT22;13300;51.032;3.710;2023-11-18T14:21:32;10.40;99.90
25346;DHT22;13300;51.032;3.710;2023-11-18T14:23:57;10.40;99.90
25346;DHT22;13300;51.032;3.710;2023-11-18T14:26:27;10.40;99.90
25346;DHT22;13300;51.032;3.710;2023-11-18T14:28:54;10.40;99.90
25346;DHT22;13300;51.032;3.710;2023-11-18T14:31:21;10.40;99.90
25346;DHT22;13300;51.032;3.710;2023-11-18T14:33:47;10.50;99.90
25346;DHT22;13300;51.032;3.710;2023-11-18T14:36:14;10.50;99.90
25346;DHT22;13300;51.032;3.710;2023-11-18T14:38:40;10.40;99.90
25346;DHT22;13300;51.032;3.710;2023-11-18T14:41:06;10.50;99.90
25346;DHT22;13300;51.032;3.710;2023-11-18T14:43:33;10.60;99.90
25346;DHT22;13300;51.032;3.710;2023-11-18T14:46:00;10.60;99.90
25346;DHT22;13300;51.032;3.710;2023-11-18T14:48:25;10.50;99.90
25346;DHT22;13300;51.032;3.710;2023-11-18T14:50:51;10.60;99.90
25346;DHT22;13300;51.032;3.710;2023-11-18T14:53:16;10.60;99.90
25346;DHT22;13300;51.032;3.710;2023-11-18T14:55:42;10.60;99.90
25346;DHT22;13300;51.032;3.710;2023-11-18T14:58:09;10.70;99.90
25346;DHT22;13300;51.032;3.710;2023-11-18T15:00:37;10.70;99.90
25346;DHT22;13300;51.032;3.710;2023-11-18T15:03:03;10.80;99.90
25346;DHT22;13300;51.032;3.710;2023-11-18T15:05:29;10.80;99.90
25346;DHT22;13300;51.032;3.710;2023-11-18T15:07:57;10.80;99.90
25346;DHT22;13300;51.032;3.710;2023-11-18T15:10:25;10.80;99.90
25346;DHT22;13300;51.032;3.710;2023-11-18T15:12:53;10.80;99.90
25346;DHT22;13300;51.032;3.710;2023-11-18T15:15:27;10.80;99.90
25346;DHT22;13300;51.032;3.710;2023-11-18T15:18:01;10.80;99.90
25346;DHT22;13300;51.032;3.710;2023-11-18T15:20:34;10.90;99.90
25346;DHT22;13300;51.032;3.710;2023-11-18T15:23:04;10.90;99.90
25346;DHT22;13300;51.032;3.710;2023-11-18T15:25:30;10.90;99.90
25346;DHT22;13300;51.032;3.710;2023-11-18T15:27:55;10.90;99.90
25346;DHT22;13300;51.032;3.710;2023-11-18T15:30:22;10.90;99.90
25346;DHT22;13300;51.032;3.710;2023-11-18T15:32:50;11.00;99.90
25346;DHT22;13300;51.032;3.710;2023-11-18T15:35:17;11.00;99.90
25346;DHT22;13300;51.032;3.710;2023-11-18T15:37:44;11.00;99.90
25346;DHT22;13300;51.032;3.710;2023-11-18T15:40:17;11.00;99.90
25346;DHT22;13300;51.032;3.710;2023-11-18T15:42:50;11.10;99.90
25346;DHT22;13300;51.032;3.710;2023-11-18T15:45:20;11.10;99.90
25346;DHT22;13300;51.032;3.710;2023-11-18T15:47:47;11.10;99.90
25346;DHT22;13300;51.032;3.710;2023-11-18T15:50:14;11.20;99.90
25346;DHT22;13300;51.032;3.710;2023-11-18T15:52:48;11.20;99.90
25346;DHT22;13300;51.032;3.710;2023-11-18T15:55:15;11.30;99.90
25346;DHT22;13300;51.032;3.710;2023-11-18T15:57:41;11.30;99.90
25346;DHT22;13300;51.032;3.710;2023-11-18T16:00:11;11.30;99.90
25346;DHT22;13300;51.032;3.710;2023-11-18T16:02:46;11.30;99.90
25346;DHT22;13300;51.032;3.710;2023-11-18T16:05:14;11.40;99.90
25346;DHT22;13300;51.032;3.710;2023-11-18T16:07:42;11.40;99.90
25346;DHT22;13300;51.032;3.710;2023-11-18T16:10:09;11.40;99.90
25346;DHT22;13300;51.032;3.710;2023-11-18T16:12:35;11.40;99.90
25346;DHT22;13300;51.032;3.710;2023-11-18T16:15:00;11.40;99.90
25346;DHT22;13300;51.032;3.710;2023-11-18T16:17:26;11.50;99.90
25346;DHT22;13300;51.032;3.710;2023-11-18T16:19:52;11.50;99.90